Dades de l'estació automàtica Sant Salvador de Guardiola
Resum diari
21:30 TU| Temperatura mitjana | 15.0 °C | |
|---|---|---|
| Temperatura màxima | 23.1 °C | 10:37 TU |
| Temperatura mínima | 10.3 °C | 21:50 TU |
| Humitat relativa mitjana | 87% | |
| Precipitació acumulada | 24.7 mm | |
| Ratxa màxima del vent (10 m) | 25.2 km/h - 293º | 12:37 TU |
| Pressió atmosfèrica mitjana | 1012.1 hPa | |
| Irradiació solar global | 13.3 MJ/m2 | |
El tram horari està expressat en Temps Universal (TU). Cal sumar una hora en horari d'hivern i dues en horari d'estiu per passar a l'hora oficial.
Sant Salvador de Guardiola
| Municipi | Sant Salvador de Guardiola |
|---|---|
| Comarca | Bages |
| Altitud | 347 m |
| Data alta | 02.02.1996 |
| Estat actual | Operativa |
| Període TU |
TM °C |
TX °C |
TN °C |
HRM % |
PPT mm |
VVM (10 m) km/h |
DVM (10 m) graus |
VVX (10 m) km/h |
PM hPa |
RS W/m2 |
|---|---|---|---|---|---|---|---|---|---|---|
| 00:00 - 00:30 | 13.8 | 13.8 | 13.7 | 87 | 0.0 | 1.1 | 354 | 4.3 | 1014.4 | 0 |
| 00:30 - 01:00 | 13.5 | 13.7 | 13.4 | 90 | 0.0 | 0.4 | 189 | 3.6 | 1014.2 | 0 |
| 01:00 - 01:30 | 13.4 | 13.5 | 13.3 | 91 | 0.0 | 1.4 | 193 | 3.6 | 1014.0 | 0 |
| 01:30 - 02:00 | 13.4 | 13.4 | 13.3 | 91 | 0.0 | 1.1 | 168 | 2.9 | 1013.8 | 0 |
| 02:00 - 02:30 | 13.4 | 13.5 | 13.3 | 90 | 0.0 | 3.2 | 11 | 7.6 | 1013.7 | 0 |
| 02:30 - 03:00 | 13.2 | 13.3 | 13.1 | 90 | 0.0 | 2.5 | 25 | 5.4 | 1013.6 | 0 |
| 03:00 - 03:30 | 13.0 | 13.1 | 12.9 | 92 | 0.0 | 0.4 | 103 | 2.9 | 1013.7 | 0 |
| 03:30 - 04:00 | 12.9 | 13.0 | 12.9 | 93 | 0.0 | 1.4 | 262 | 5.4 | 1013.7 | 0 |
| 04:00 - 04:30 | 13.0 | 13.0 | 12.9 | 93 | 0.0 | 2.2 | 180 | 5.8 | 1013.6 | 0 |
| 04:30 - 05:00 | 13.0 | 13.1 | 12.9 | 93 | 0.0 | 1.4 | 193 | 4.3 | 1013.6 | 1 |
| 05:00 - 05:30 | 13.1 | 13.4 | 13.0 | 93 | 0.0 | 1.8 | 147 | 4.3 | 1013.4 | 31 |
| 05:30 - 06:00 | 13.6 | 13.6 | 13.5 | 90 | 0.0 | 2.9 | 32 | 8.6 | 1013.2 | 39 |
| 06:00 - 06:30 | 14.2 | 15.7 | 13.5 | 86 | 0.0 | 2.9 | 32 | 7.6 | 1013.1 | 193 |
| 06:30 - 07:00 | 15.4 | 16.1 | 14.7 | 78 | 0.0 | 2.9 | 42 | 7.2 | 1013.1 | 224 |
| 07:00 - 07:30 | 14.8 | 15.2 | 14.7 | 81 | 0.0 | 1.8 | 13 | 6.8 | 1013.2 | 163 |
| 07:30 - 08:00 | 16.0 | 16.9 | 15.3 | 76 | 0.0 | 2.5 | 19 | 8.6 | 1012.9 | 346 |
| 08:00 - 08:30 | 17.3 | 17.8 | 16.8 | 69 | 0.0 | 3.6 | 37 | 8.6 | 1012.5 | 437 |
| 08:30 - 09:00 | 18.1 | 18.6 | 17.7 | 66 | 0.0 | 3.2 | 48 | 8.6 | 1012.3 | 510 |
| 09:00 - 09:30 | 19.1 | 19.5 | 18.6 | 62 | 0.0 | 4.0 | 44 | 9.0 | 1011.8 | 592 |
| 09:30 - 10:00 | 20.2 | 20.9 | 19.1 | 60 | 0.0 | 5.0 | 21 | 10.4 | 1011.3 | 842 |
| 10:00 - 10:30 | 20.9 | 21.4 | 20.3 | 57 | 0.0 | 5.4 | 5 | 13.0 | 1011.1 | 828 |
| 10:30 - 11:00 | 22.4 | 23.1 | 21.7 | 52 | 0.0 | 6.1 | 90 | 14.8 | 1010.6 | 687 |
| 11:00 - 11:30 | 21.9 | 22.6 | 21.3 | 54 | 0.0 | 6.8 | 89 | 18.0 | 1010.3 | 590 |
| 11:30 - 12:00 | 21.0 | 22.3 | 20.7 | 58 | 0.0 | 10.4 | 124 | 19.8 | 1010.1 | 340 |
| 12:00 - 12:30 | 20.9 | 21.7 | 19.4 | 60 | 0.4 | 6.5 | 96 | 17.6 | 1009.8 | 226 |
| 12:30 - 13:00 | 14.2 | 18.8 | 12.6 | 92 | 8.1 | 7.6 | 273 | 25.2 | 1011.5 | 27 |
| 13:00 - 13:30 | 12.5 | 12.7 | 12.4 | 100 | 8.3 | 4.7 | 195 | 9.7 | 1012.0 | 45 |
| 13:30 - 14:00 | 13.1 | 13.4 | 12.6 | 100 | 2.7 | 4.0 | 242 | 13.3 | 1011.8 | 73 |
| 14:00 - 14:30 | 13.6 | 14.0 | 13.4 | 100 | 0.4 | 3.2 | 4 | 9.7 | 1011.7 | 128 |
| 14:30 - 15:00 | 14.4 | 14.7 | 14.0 | 100 | 0.0 | 2.5 | 93 | 5.8 | 1011.3 | 268 |
| 15:00 - 15:30 | 14.7 | 15.1 | 14.4 | 100 | 0.0 | 2.5 | 25 | 6.1 | 1011.0 | 251 |
| 15:30 - 16:00 | 15.1 | 15.4 | 14.8 | 100 | 0.0 | 3.2 | 350 | 7.9 | 1010.7 | 221 |
| 16:00 - 16:30 | 15.4 | 15.7 | 15.1 | 100 | 0.0 | 2.2 | 8 | 6.5 | 1010.6 | 185 |
| 16:30 - 17:00 | 15.5 | 15.7 | 15.4 | 100 | 0.0 | 2.2 | 326 | 6.5 | 1010.5 | 67 |
| 17:00 - 17:30 | 15.5 | 15.6 | 15.4 | 100 | 0.0 | 1.4 | 57 | 4.7 | 1010.3 | 54 |
| 17:30 - 18:00 | 15.1 | 15.5 | 14.9 | 100 | 0.0 | 1.4 | 2 | 3.6 | 1010.1 | 51 |
| 18:00 - 18:30 | 14.9 | 15.0 | 14.8 | 100 | 0.0 | 0.0 | 22 | 2.9 | 1010.4 | 6 |
| 18:30 - 19:00 | 14.2 | 15.1 | 12.0 | 100 | 2.6 | 4.7 | 204 | 22.7 | 1011.2 | 1 |
| 19:00 - 19:30 | 11.9 | 12.1 | 11.9 | 100 | 2.0 | 6.1 | 210 | 21.6 | 1012.1 | 0 |
| 19:30 - 20:00 | 12.2 | 12.7 | 11.9 | 96 | 0.2 | 5.0 | 256 | 17.3 | 1012.1 | 0 |
| 20:00 - 20:30 | 12.2 | 12.8 | 11.9 | 97 | 0.0 | 5.8 | 143 | 12.2 | 1012.3 | 0 |
| 20:30 - 21:00 | 11.9 | 12.3 | 11.5 | 99 | 0.0 | 4.0 | 177 | 8.6 | 1012.4 | 0 |
| 21:00 - 21:30 | 11.0 | 11.4 | 10.5 | 100 | 0.0 | 1.4 | 217 | 5.4 | 1012.5 | 0 |
| 21:30 - 22:00 | 10.5 | 10.6 | 10.3 | 100 | 0.0 | 2.2 | 203 | 7.6 | 1012.5 | 0 |
Les dades en taronja només han passat un control de qualitat automàtic. Resta pendent la seva validació definitiva.